Aiea, Hawaii
Current Conditions -  °F | °C
As of 12:53 AM on Monday 20 Oct 2014 (Local Time) from PHNL Reporting Station
Broken Clouds Broken Clouds  
Wind Chill: 79°   Ceiling: 12000
Heat Index: 82°   Visibility: 10mi
Dew Point: 71°   Wind: 8mph
Humidity: 77%   Direction: 80°E
Pressure: 29.97"   Gusts: NA
Location:  21.38°N, 157.93°W
Report Text: PHNL 201053Z 08007KT 10SM FEW030 SCT050 BKN120 26/22 A2997 RMK AO2 RAE00 SLP147 P0000 T02610217 $
Loading
Personal Weather Stations






























Interactive Weather Map
Tropical Storm Tracking
New forecast layout! Learn more

10-Day Weather Forecast

Advertisements
Track Severe Weather on mobile